首页
METAR-TAF:

METAR-TAF

机场 :

Johnston County Airport

Smithfield, 北卡罗来纳州, 美国

纬度: 35-32-27N, 经度: 078-23-25W, 海拔: 50米

当前天气观测

该预报发布于24分钟前的16:15 UTC
风速10节,风向,有时为17节阵风,在西北北转东北之间变化
温度 16°C
湿度 45%
气压 1020 hPa
能見度: 16.1公里
天空无云

METAR: KJNX 231615Z AUTO 36010G17KT 320V030 10SM CLR 16/04 A3011 RMK AO2

时间: 11:39 (16:39 UTC)


TAF: 丢失

超过4000个机场的气象观测和天气预报(METAR&TAF报告)。

可查询的气象台以黄色和红色小点在地图上表示。

将鼠标移到小点上方,可查看气象台名称。

然后点击查看天气观测和预报。

如需切换地图:点击带黑十字的绿色按钮放大地图;点击带横线的绿色按钮缩小地图;或者点击绿色箭头查看邻近地区的地图。


METAR-TAF: